Marshalltown, Iowa
Current Conditions -  °F | °C
As of 11:17 PM on Saturday 22 Nov 2014 (Local Time) from KMIW Reporting Station
Overcast Overcast  
Wind Chill: 52°   Ceiling: 1400
Heat Index: 52°   Visibility: 10mi
Dew Point: 49°   Wind: 21mph
Humidity: 89%   Direction: 190°S
Pressure: 29.63"   Gusts: NA
Location:  42.05°N, 92.91°W
Report Text: KMIW 230517Z AUTO 19018KT 10SM OVC014 11/09 A2963 RMK AO2 T01110094
Loading
Personal Weather Stations






























Interactive Weather Map New forecast layout! Learn more

10-Day Weather Forecast

Advertisements
Track Severe Weather on mobile